createdAt,value
2019-04-22T00:00:16.694Z,52.22
2019-04-22T00:01:21.547Z,52.70
2019-04-22T00:02:15.211Z,52.99
2019-04-22T00:03:16.785Z,52.99
2019-04-22T00:04:22.991Z,52.89
2019-04-22T00:05:36.500Z,52.99
2019-04-22T00:06:42.486Z,53.28
2019-04-22T00:07:38.971Z,53.47
2019-04-22T00:08:36.120Z,53.85
2019-04-22T00:09:41.843Z,53.56
2019-04-22T00:10:43.588Z,53.47
2019-04-22T00:12:00.378Z,53.37
2019-04-22T00:12:42.352Z,53.47
2019-04-22T00:13:49.175Z,53.53
2019-04-22T00:14:35.167Z,54.04
2019-04-22T00:15:39.226Z,54.11
2019-04-22T00:16:47.248Z,53.94
2019-04-22T00:17:45.493Z,54.02
2019-04-22T00:18:57.834Z,54.39
2019-04-22T00:19:45.335Z,54.30
2019-04-22T00:20:43.206Z,53.82
2019-04-22T00:22:40.194Z,54.21
2019-04-22T00:23:39.522Z,54.21
2019-04-22T00:24:46.832Z,54.21
2019-04-22T00:25:48.329Z,54.59
2019-04-22T00:26:44.498Z,54.78
2019-04-22T00:27:51.066Z,54.39
2019-04-22T00:28:44.079Z,54.30
2019-04-22T00:30:02.385Z,54.68
2019-04-22T00:30:41.925Z,54.49
2019-04-22T00:31:41.690Z,54.49
2019-04-22T00:32:43.344Z,54.88
2019-04-22T00:33:38.889Z,54.88
2019-04-22T00:34:44.019Z,54.85
2019-04-22T00:35:42.007Z,55.16
2019-04-22T00:36:43.779Z,54.97
2019-04-22T00:37:46.241Z,54.75
2019-04-22T00:38:49.514Z,54.88
2019-04-22T00:39:46.480Z,54.66
2019-04-22T00:40:44.952Z,54.97
2019-04-22T00:41:44.077Z,54.68
2019-04-22T00:42:46.947Z,55.26
2019-04-22T00:43:48.170Z,55.74
2019-04-22T00:44:45.120Z,55.71
2019-04-22T00:45:44.833Z,55.61
2019-04-22T00:46:47.891Z,55.71
2019-04-22T00:47:54.846Z,55.42
2019-04-22T00:48:57.696Z,55.52
2019-04-22T00:50:48.205Z,54.94
2019-04-22T00:51:52.379Z,55.71
2019-04-22T00:52:49.319Z,55.61
2019-04-22T00:53:50.761Z,55.61
2019-04-22T00:54:35.977Z,55.42
2019-04-22T00:55:47.460Z,55.52
2019-04-22T00:56:40.634Z,55.32
2019-04-22T00:57:46.295Z,55.42
2019-04-22T00:58:45.322Z,55.23
2019-04-22T00:59:49.637Z,55.32
2019-04-22T01:00:45.518Z,54.85
2019-04-22T01:01:45.654Z,55.42
2019-04-22T01:02:52.175Z,55.42
2019-04-22T01:04:49.445Z,55.52
2019-04-22T01:05:46.950Z,55.52
2019-04-22T01:06:44.526Z,56.09
2019-04-22T01:07:53.235Z,55.99
2019-04-22T01:08:53.646Z,56.28
2019-04-22T01:09:51.802Z,56.28
2019-04-22T01:10:59.033Z,56.28
2019-04-22T01:11:48.534Z,56.28
2019-04-22T01:13:49.813Z,56.28
2019-04-22T01:14:52.018Z,56.35
2019-04-22T01:15:47.802Z,55.96
2019-04-22T01:16:48.516Z,55.96
2019-04-22T01:17:52.969Z,55.99
2019-04-22T01:18:50.557Z,55.96
2019-04-22T01:19:56.217Z,56.28
2019-04-22T01:21:06.940Z,56.25
2019-04-22T01:21:43.834Z,56.45
2019-04-22T01:22:47.678Z,56.35
2019-04-22T01:23:49.096Z,56.16
2019-04-22T01:24:44.890Z,56.38
2019-04-22T01:25:46.276Z,55.96
2019-04-22T01:26:47.669Z,56.16
2019-04-22T01:27:39.288Z,56.25
2019-04-22T01:28:39.266Z,56.06
2019-04-22T01:29:39.698Z,56.35
2019-04-22T01:30:34.976Z,56.63
2019-04-22T01:31:30.598Z,56.73
2019-04-22T01:32:34.027Z,56.45
2019-04-22T01:33:33.161Z,56.45
2019-04-22T01:34:40.077Z,57.11
2019-04-22T01:35:39.778Z,57.21
2019-04-22T01:36:51.715Z,57.21
2019-04-22T01:37:46.101Z,56.92
2019-04-22T01:38:52.957Z,57.40
2019-04-22T01:39:50.066Z,57.21
2019-04-22T01:40:58.457Z,57.31
2019-04-22T01:42:06.102Z,57.11
2019-04-22T01:42:56.232Z,57.59
2019-04-22T01:43:59.016Z,57.56
2019-04-22T01:44:50.917Z,57.65
2019-04-22T01:45:53.333Z,57.78
2019-04-22T01:48:14.520Z,57.97
2019-04-22T01:48:57.406Z,57.59
2019-04-22T01:49:57.945Z,57.65
2019-04-22T01:50:49.901Z,58.07
2019-04-22T01:51:58.423Z,57.65
2019-04-22T01:53:00.933Z,57.46
2019-04-22T01:54:00.153Z,57.37
2019-04-22T01:54:56.871Z,57.65
2019-04-22T01:56:02.021Z,57.56
2019-04-22T01:56:55.765Z,57.37
2019-04-22T01:57:53.570Z,57.37
2019-04-22T01:58:50.210Z,57.65
2019-04-22T01:59:46.029Z,57.65
2019-04-22T02:01:00.047Z,57.56
2019-04-22T02:01:57.483Z,58.33
2019-04-22T02:03:02.462Z,57.65
2019-04-22T02:03:57.496Z,57.75
2019-04-22T02:05:02.161Z,57.65
2019-04-22T02:06:02.335Z,58.14
2019-04-22T02:06:57.695Z,58.14
2019-04-22T02:07:57.981Z,57.94
2019-04-22T02:09:02.031Z,58.23
2019-04-22T02:09:55.122Z,57.85
2019-04-22T02:12:04.659Z,58.33
2019-04-22T02:13:04.503Z,58.23
2019-04-22T02:13:56.790Z,58.14
2019-04-22T02:14:58.022Z,58.42
2019-04-22T02:15:58.498Z,58.33
2019-04-22T02:17:01.341Z,58.51
2019-04-22T02:18:02.763Z,58.42
2019-04-22T02:19:09.683Z,58.80
2019-04-22T02:20:00.859Z,58.80
2019-04-22T02:21:00.154Z,58.70
2019-04-22T02:21:55.970Z,58.90
2019-04-22T02:23:15.871Z,58.61
2019-04-22T02:24:05.290Z,58.23
2019-04-22T02:25:06.713Z,58.51
2019-04-22T02:26:02.485Z,58.51
2019-04-22T02:26:56.777Z,59.09
2019-04-22T02:28:11.126Z,58.42
2019-04-22T02:28:58.062Z,58.01
2019-04-22T02:29:58.441Z,58.42
2019-04-22T02:31:22.074Z,58.11
2019-04-22T02:32:15.311Z,58.11
2019-04-22T02:33:30.730Z,58.48
2019-04-22T02:34:18.737Z,58.87
2019-04-22T02:35:11.678Z,58.77
2019-04-22T02:36:19.125Z,58.68
2019-04-22T02:37:04.248Z,59.25
2019-04-22T02:38:08.057Z,59.53
2019-04-22T02:39:05.703Z,59.44
2019-04-22T02:40:09.202Z,58.97
2019-04-22T02:42:14.297Z,58.77
2019-04-22T02:43:12.536Z,59.63
2019-04-22T02:44:58.508Z,59.25
2019-04-22T02:47:11.985Z,59.34
2019-04-22T02:48:10.384Z,59.63
2019-04-22T02:51:12.442Z,59.63
2019-04-22T02:52:14.536Z,59.16
2019-04-22T02:53:13.854Z,59.25
2019-04-22T02:57:16.653Z,59.34
2019-04-22T02:58:06.268Z,59.31
2019-04-22T02:59:09.535Z,59.31
2019-04-22T03:00:15.900Z,59.51
2019-04-22T03:01:13.569Z,59.60
2019-04-22T03:02:03.171Z,60.17
2019-04-22T03:05:09.145Z,60.36
2019-04-22T03:07:03.342Z,60.46
2019-04-22T03:08:14.949Z,60.36
2019-04-22T03:09:16.302Z,59.89
2019-04-22T03:10:15.497Z,60.17
2019-04-22T03:11:13.524Z,60.08
2019-04-22T03:12:16.445Z,59.70
2019-04-22T03:13:21.301Z,60.08
2019-04-22T03:15:07.811Z,59.12
2019-04-22T03:18:09.998Z,59.60
2019-04-22T03:19:36.599Z,59.99
2019-04-22T03:21:15.952Z,59.60
2019-04-22T03:22:16.102Z,60.17
2019-04-22T03:23:25.034Z,59.99
2019-04-22T03:24:25.710Z,60.17
2019-04-22T03:25:42.328Z,59.60
2019-04-22T03:27:08.071Z,60.36
2019-04-22T03:28:10.307Z,59.89
2019-04-22T03:29:31.015Z,59.79
2019-04-22T03:30:48.278Z,60.17
2019-04-22T03:31:20.304Z,59.99
2019-04-22T03:32:39.458Z,61.13
2019-04-22T03:34:55.407Z,60.81
2019-04-22T03:36:49.210Z,61.04
2019-04-22T03:37:23.161Z,61.41
2019-04-22T03:38:08.581Z,61.41
2019-04-22T03:39:27.731Z,61.32
2019-04-22T03:42:23.456Z,61.51
2019-04-22T03:43:13.713Z,61.41
2019-04-22T03:44:23.465Z,61.13
2019-04-22T03:45:27.177Z,61.60
2019-04-22T03:46:05.146Z,61.29
2019-04-22T03:47:21.320Z,61.10
2019-04-22T03:48:26.383Z,61.29
2019-04-22T03:49:28.871Z,61.38
2019-04-22T03:51:25.296Z,62.15
2019-04-22T03:53:15.002Z,62.05
2019-04-22T03:56:36.544Z,62.34
2019-04-22T03:58:01.420Z,61.57
2019-04-22T04:00:30.321Z,61.76
2019-04-22T04:01:30.174Z,61.67
2019-04-22T04:02:26.260Z,61.48
2019-04-22T04:03:11.721Z,61.48
2019-04-22T04:04:32.736Z,61.48
2019-04-22T04:06:18.030Z,61.76
2019-04-22T04:08:31.863Z,62.15
2019-04-22T04:10:30.647Z,62.15
2019-04-22T04:11:26.270Z,61.57
2019-04-22T04:13:16.810Z,62.43
2019-04-22T04:14:35.897Z,62.34
2019-04-22T04:15:21.150Z,62.24
2019-04-22T04:16:30.379Z,62.34
2019-04-22T04:17:20.743Z,62.43
2019-04-22T04:18:41.267Z,62.34
2019-04-22T04:19:30.353Z,62.43
2019-04-22T04:22:32.201Z,62.34
2019-04-22T04:26:33.534Z,62.43
2019-04-22T04:27:43.995Z,62.15
2019-04-22T04:33:22.979Z,62.62
2019-04-22T04:34:55.847Z,62.52
2019-04-22T04:36:28.299Z,61.96
2019-04-22T04:38:24.485Z,62.62
2019-04-22T04:39:26.601Z,63.10
2019-04-22T04:40:29.208Z,62.91
2019-04-22T04:41:33.792Z,62.97
2019-04-22T04:43:25.846Z,62.78
2019-04-22T04:44:35.199Z,62.81
2019-04-22T04:46:47.414Z,62.72
2019-04-22T04:47:39.123Z,63.10
2019-04-22T04:49:32.384Z,63.29
2019-04-22T04:50:17.886Z,63.57
2019-04-22T04:51:32.921Z,63.48
2019-04-22T04:52:52.523Z,63.39
2019-04-22T04:53:34.133Z,63.00
2019-04-22T04:55:27.963Z,62.91
2019-04-22T04:56:30.468Z,63.39
2019-04-22T04:58:34.469Z,63.96
2019-04-22T04:59:42.004Z,63.96
2019-04-22T05:02:30.495Z,64.15
2019-04-22T05:03:29.769Z,64.24
2019-04-22T05:05:28.967Z,63.76
2019-04-22T05:06:33.076Z,63.76
2019-04-22T05:07:40.508Z,63.86
2019-04-22T05:08:39.174Z,63.86
2019-04-22T05:09:26.180Z,64.05
2019-04-22T05:10:49.728Z,64.05
2019-04-22T05:11:40.717Z,64.05
2019-04-22T05:12:45.382Z,64.34
2019-04-22T05:13:35.307Z,64.53
2019-04-22T05:14:24.307Z,64.62
2019-04-22T05:15:27.275Z,64.15
2019-04-22T05:17:25.506Z,64.43
2019-04-22T05:18:33.524Z,64.53
2019-04-22T05:19:26.513Z,64.43
2019-04-22T05:22:28.627Z,64.91
2019-04-22T05:24:31.362Z,65.48
2019-04-22T05:25:25.183Z,65.67
2019-04-22T05:26:28.089Z,65.48
2019-04-22T05:27:32.969Z,65.29
2019-04-22T05:28:24.459Z,64.91
2019-04-22T05:29:27.380Z,64.91
2019-04-22T05:31:22.422Z,65.67
2019-04-22T05:32:24.430Z,65.48
2019-04-22T05:33:21.475Z,65.86
2019-04-22T05:34:21.487Z,65.67
2019-04-22T05:35:26.548Z,65.29
2019-04-22T05:36:40.255Z,65.58
2019-04-22T05:37:27.690Z,65.58
2019-04-22T05:38:27.977Z,65.29
2019-04-22T05:39:22.679Z,64.91
2019-04-22T05:40:22.993Z,65.00
2019-04-22T05:41:27.222Z,65.10
2019-04-22T05:42:34.258Z,65.29
2019-04-22T05:43:21.586Z,65.20
2019-04-22T05:44:23.548Z,64.81
2019-04-22T05:46:22.392Z,65.20
2019-04-22T05:47:26.205Z,65.26
2019-04-22T05:48:30.531Z,65.83
2019-04-22T05:49:25.772Z,65.92
2019-04-22T05:50:22.833Z,66.78
2019-04-22T05:51:27.824Z,67.07
2019-04-22T05:53:31.264Z,68.21
2019-04-22T05:54:28.975Z,67.93
2019-04-22T05:55:32.710Z,68.21
2019-04-22T05:56:34.220Z,68.21
2019-04-22T05:57:23.392Z,68.12
2019-04-22T05:58:36.374Z,67.83
2019-04-22T05:59:24.987Z,68.12
2019-04-22T06:00:35.620Z,67.55
2019-04-22T06:02:43.175Z,66.72
2019-04-22T06:03:32.819Z,67.10
2019-04-22T06:04:25.642Z,66.53
2019-04-22T06:05:32.060Z,66.72
2019-04-22T06:06:22.513Z,67.00
2019-04-22T06:07:26.758Z,66.91
2019-04-22T06:08:23.276Z,67.00
2019-04-22T06:09:30.265Z,66.63
2019-04-22T06:10:37.612Z,67.10
2019-04-22T06:11:29.541Z,67.00
2019-04-22T06:12:23.378Z,67.29
2019-04-22T06:13:26.769Z,66.91
2019-04-22T06:14:26.368Z,67.96
2019-04-22T06:15:30.134Z,68.05
2019-04-22T06:16:31.343Z,68.24
2019-04-22T06:17:31.325Z,68.24
2019-04-22T06:18:27.469Z,68.63
2019-04-22T06:19:27.808Z,68.24
2019-04-22T06:20:32.140Z,68.15
2019-04-22T06:21:35.600Z,68.05
2019-04-22T06:22:41.743Z,68.15
2019-04-22T06:23:34.605Z,68.05
2019-04-22T06:24:27.511Z,68.05
2019-04-22T06:25:38.797Z,68.18
2019-04-22T06:26:40.653Z,68.09
2019-04-22T06:28:34.865Z,67.80
2019-04-22T06:29:41.308Z,67.14
2019-04-22T06:30:32.495Z,67.23
2019-04-22T06:31:38.188Z,66.98
2019-04-22T06:33:53.245Z,66.41
2019-04-22T06:36:43.138Z,65.93
2019-04-22T06:37:41.993Z,65.74
2019-04-22T06:39:34.312Z,65.83
2019-04-22T06:40:34.261Z,65.74
2019-04-22T06:41:34.883Z,65.64
2019-04-22T06:42:35.880Z,65.83
2019-04-22T06:43:35.522Z,66.15
2019-04-22T06:44:29.897Z,65.48
2019-04-22T06:45:30.595Z,65.39
2019-04-22T06:46:33.575Z,65.58
2019-04-22T06:47:44.114Z,66.25
2019-04-22T06:48:29.802Z,65.87
2019-04-22T06:49:35.589Z,66.35
2019-04-22T06:50:40.119Z,65.67
2019-04-22T06:51:35.643Z,65.80
2019-04-22T06:52:36.606Z,66.19
2019-04-22T06:53:37.440Z,65.42
2019-04-22T06:54:32.521Z,64.47
2019-04-22T06:55:35.735Z,64.09
2019-04-22T06:56:30.270Z,63.03
2019-04-22T06:57:30.539Z,63.03
2019-04-22T06:58:34.996Z,62.46
2019-04-22T06:59:33.119Z,62.65
2019-04-22T07:00:36.703Z,62.75
2019-04-22T07:01:36.922Z,62.49
2019-04-22T07:02:45.243Z,63.13
2019-04-22T07:04:35.886Z,63.16
2019-04-22T07:05:35.107Z,62.68
2019-04-22T07:07:34.523Z,62.49
2019-04-22T07:09:05.914Z,62.40
2019-04-22T07:11:33.919Z,61.63
2019-04-22T07:12:36.470Z,62.11
2019-04-22T07:13:36.761Z,61.95
2019-04-22T07:14:35.586Z,61.72
2019-04-22T07:15:46.343Z,61.38
2019-04-22T07:16:38.206Z,61.35
2019-04-22T07:18:40.857Z,61.76
2019-04-22T07:19:40.919Z,61.47
2019-04-22T07:20:42.194Z,61.76
2019-04-22T07:21:30.842Z,61.76
2019-04-22T07:22:35.756Z,61.19
2019-04-22T07:23:41.694Z,61.09
2019-04-22T07:25:36.380Z,60.35
2019-04-22T07:26:36.223Z,60.35
2019-04-22T07:27:34.583Z,60.52
2019-04-22T07:28:29.148Z,61.12
2019-04-22T07:29:42.480Z,61.02
2019-04-22T07:30:40.495Z,60.74
2019-04-22T07:31:37.297Z,59.97
2019-04-22T07:32:59.180Z,60.26
2019-04-22T07:33:37.921Z,60.83
2019-04-22T07:34:40.484Z,60.64
2019-04-22T07:35:48.927Z,59.52
2019-04-22T07:37:41.977Z,58.86
2019-04-22T07:38:50.457Z,57.99
2019-04-22T07:39:39.579Z,58.28
2019-04-22T07:40:43.600Z,57.73
2019-04-22T07:41:37.767Z,57.16
2019-04-22T07:42:36.868Z,56.20
2019-04-22T07:43:59.649Z,55.34
2019-04-22T07:44:38.490Z,54.48
2019-04-22T07:45:43.763Z,54.10
2019-04-22T07:46:43.515Z,54.12
2019-04-22T07:47:38.090Z,54.89
2019-04-22T07:50:50.653Z,54.70
2019-04-22T07:52:38.819Z,54.70
2019-04-22T07:53:45.430Z,54.12
2019-04-22T07:54:44.934Z,54.22
2019-04-22T07:55:40.459Z,54.34
2019-04-22T07:56:45.347Z,54.34
2019-04-22T07:57:39.552Z,54.15
2019-04-22T07:58:42.197Z,53.77
2019-04-22T07:59:40.787Z,54.34
2019-04-22T08:00:38.658Z,54.24
2019-04-22T08:01:38.606Z,54.66
2019-04-22T08:02:44.074Z,53.77
2019-04-22T08:03:56.632Z,53.50
2019-04-22T08:04:53.767Z,55.71
2019-04-22T08:05:52.141Z,53.89
2019-04-22T08:06:46.381Z,52.55
2019-04-22T08:07:45.386Z,52.45
2019-04-22T08:08:46.005Z,53.41
2019-04-22T08:09:55.635Z,52.57
2019-04-22T08:10:49.627Z,51.78
2019-04-22T08:12:47.363Z,50.37
2019-04-22T08:13:40.687Z,50.46
2019-04-22T08:14:45.846Z,51.71
2019-04-22T08:15:48.523Z,50.75
2019-04-22T08:16:51.290Z,50.08
2019-04-22T08:18:39.542Z,49.98
2019-04-22T08:19:49.458Z,50.78
2019-04-22T08:20:58.482Z,50.37
2019-04-22T08:21:49.353Z,50.29
2019-04-22T08:22:52.196Z,51.83
2019-04-22T08:23:51.401Z,50.20
2019-04-22T08:24:51.097Z,48.47
2019-04-22T08:25:46.163Z,47.99
2019-04-22T08:26:50.935Z,47.03
2019-04-22T08:27:42.808Z,48.88
2019-04-22T08:28:46.895Z,47.32
2019-04-22T08:29:53.491Z,47.92
2019-04-22T08:30:51.939Z,48.40
2019-04-22T08:31:49.147Z,48.69
2019-04-22T08:32:46.065Z,50.03
2019-04-22T08:33:46.712Z,48.97
2019-04-22T08:34:42.660Z,47.92
2019-04-22T08:36:00.462Z,48.30
2019-04-22T08:37:50.763Z,47.15
2019-04-22T08:38:52.800Z,46.48
2019-04-22T08:40:08.822Z,46.12
2019-04-22T08:40:48.756Z,45.54
2019-04-22T08:41:40.340Z,45.73
2019-04-22T08:45:51.027Z,45.45
2019-04-22T08:46:48.917Z,46.59
2019-04-22T08:48:03.023Z,45.45
2019-04-22T08:48:51.503Z,44.20
2019-04-22T08:49:59.698Z,43.81
2019-04-22T08:51:01.179Z,43.04
2019-04-22T08:51:49.390Z,43.04
2019-04-22T08:52:53.527Z,43.74
2019-04-22T08:53:58.900Z,43.84
2019-04-22T08:54:50.549Z,44.41
2019-04-22T08:55:56.031Z,44.99
2019-04-22T08:56:45.615Z,44.51
2019-04-22T08:58:13.363Z,44.22
2019-04-22T08:58:57.409Z,43.93
2019-04-22T08:59:48.766Z,43.74
2019-04-22T09:01:05.087Z,44.51
2019-04-22T09:01:47.003Z,44.60
2019-04-22T09:02:55.139Z,45.08
2019-04-22T09:03:52.448Z,42.97
2019-04-22T09:04:48.339Z,42.58
2019-04-22T09:07:53.868Z,44.12
2019-04-22T09:08:56.910Z,44.12
2019-04-22T09:09:50.647Z,43.57
2019-04-22T09:10:48.565Z,43.85
2019-04-22T09:11:54.777Z,43.66
2019-04-22T09:15:02.468Z,49.15
2019-04-22T09:15:49.110Z,46.16
2019-04-22T09:16:48.703Z,46.09
2019-04-22T09:18:00.434Z,46.67
2019-04-22T09:18:57.496Z,46.86
2019-04-22T09:19:55.209Z,45.32
2019-04-22T09:20:58.823Z,45.80
2019-04-22T09:21:54.570Z,45.03
2019-04-22T09:22:57.033Z,44.55
2019-04-22T09:24:00.778Z,44.55
2019-04-22T09:24:51.783Z,42.63
2019-04-22T09:25:59.846Z,42.63
2019-04-22T09:27:00.332Z,43.20
2019-04-22T09:28:10.668Z,42.05
2019-04-22T09:29:03.273Z,41.76
2019-04-22T09:29:56.070Z,41.28
2019-04-22T09:30:55.624Z,41.49
2019-04-22T09:32:01.830Z,42.07
2019-04-22T09:33:53.627Z,41.78
2019-04-22T09:34:51.980Z,42.26
2019-04-22T09:36:05.601Z,42.26
2019-04-22T09:37:01.544Z,42.84
2019-04-22T09:38:52.916Z,42.46
2019-04-22T09:39:59.862Z,43.03
2019-04-22T09:40:52.644Z,42.93
2019-04-22T09:42:00.512Z,43.34
2019-04-22T09:42:56.156Z,42.76
2019-04-22T09:44:00.531Z,42.38
2019-04-22T09:44:53.585Z,41.51
2019-04-22T09:45:52.619Z,40.14
2019-04-22T09:46:51.988Z,40.45
2019-04-22T09:48:00.865Z,41.51
2019-04-22T09:49:04.735Z,41.80
2019-04-22T09:50:54.022Z,44.02
2019-04-22T09:51:58.166Z,42.67
2019-04-22T09:54:01.227Z,41.89
2019-04-22T09:55:15.409Z,41.61
2019-04-22T09:56:01.688Z,42.76
2019-04-22T09:56:56.453Z,41.89
2019-04-22T09:57:56.733Z,43.44
2019-04-22T09:58:55.662Z,42.67
2019-04-22T10:00:07.838Z,41.89
2019-04-22T10:01:03.092Z,42.86
2019-04-22T10:02:14.623Z,44.31
2019-04-22T10:03:00.530Z,44.59
2019-04-22T10:05:00.154Z,41.99
2019-04-22T10:06:13.297Z,41.80
2019-04-22T10:06:54.694Z,42.57
2019-04-22T10:08:03.272Z,43.55
2019-04-22T10:09:26.295Z,42.69
2019-04-22T10:10:03.655Z,42.79
2019-04-22T10:11:06.004Z,42.79
2019-04-22T10:11:57.734Z,41.92
2019-04-22T10:12:54.074Z,41.05
2019-04-22T10:13:58.683Z,41.14
2019-04-22T10:15:18.401Z,42.40
2019-04-22T10:16:08.071Z,42.11
2019-04-22T10:16:59.974Z,41.44
2019-04-22T10:18:04.832Z,41.53
2019-04-22T10:20:01.129Z,42.59
2019-04-22T10:21:02.380Z,42.11
2019-04-22T10:22:02.948Z,41.24
2019-04-22T10:22:57.460Z,42.02
2019-04-22T10:24:05.431Z,42.02
2019-04-22T10:25:03.311Z,41.34
2019-04-22T10:26:04.973Z,40.47
2019-04-22T10:27:01.727Z,40.78
2019-04-22T10:28:08.841Z,40.49
2019-04-22T10:29:09.170Z,41.75
2019-04-22T10:31:05.416Z,40.88
2019-04-22T10:32:00.928Z,40.39
2019-04-22T10:33:02.047Z,38.95
2019-04-22T10:33:53.225Z,39.82
2019-04-22T10:34:45.759Z,39.34
2019-04-22T10:35:39.352Z,39.91
2019-04-22T10:36:38.434Z,38.37
2019-04-22T10:37:38.629Z,38.95
2019-04-22T10:38:38.157Z,38.46
2019-04-22T10:39:45.838Z,37.79
2019-04-22T10:40:38.818Z,37.81
2019-04-22T10:41:38.975Z,38.97
2019-04-22T10:42:38.984Z,38.68
2019-04-22T10:43:39.201Z,38.10
2019-04-22T10:44:39.249Z,38.78
2019-04-22T10:45:39.807Z,39.06
2019-04-22T10:46:40.257Z,38.01
2019-04-22T10:47:40.358Z,38.68
2019-04-22T10:48:40.130Z,39.57
2019-04-22T10:49:40.368Z,37.73
2019-04-22T10:50:41.034Z,37.63
2019-04-22T10:51:40.363Z,38.71
2019-04-22T10:52:41.382Z,39.29
2019-04-22T10:53:41.607Z,37.95
2019-04-22T10:54:41.265Z,36.50
2019-04-22T10:55:43.439Z,36.50
2019-04-22T10:56:41.095Z,37.27
2019-04-22T10:57:41.051Z,35.92
2019-04-22T10:58:42.438Z,34.87
2019-04-22T10:59:41.097Z,36.13
2019-04-22T11:00:41.839Z,34.58
2019-04-22T11:01:42.337Z,35.06
2019-04-22T11:02:41.618Z,36.22
2019-04-22T11:03:41.677Z,35.45
2019-04-22T11:04:41.817Z,35.64
2019-04-22T11:05:42.126Z,34.97
2019-04-22T11:06:51.833Z,35.26
2019-04-22T11:07:51.423Z,36.03
2019-04-22T11:08:50.489Z,35.55
2019-04-22T11:09:52.013Z,35.64
2019-04-22T11:11:00.594Z,34.70
2019-04-22T11:11:52.098Z,35.16
2019-04-22T11:12:43.274Z,35.06
2019-04-22T11:13:44.033Z,35.76
2019-04-22T11:14:43.406Z,34.78
2019-04-22T11:15:44.589Z,34.99
2019-04-22T11:16:43.665Z,34.50
2019-04-22T11:17:43.868Z,35.08
2019-04-22T11:18:45.370Z,34.31
2019-04-22T11:19:44.047Z,33.63
2019-04-22T11:20:44.178Z,34.31
2019-04-22T11:21:57.060Z,35.66
2019-04-22T11:22:44.688Z,35.49
2019-04-22T11:23:44.790Z,34.52
2019-04-22T11:24:44.724Z,33.94
2019-04-22T11:25:46.049Z,33.36
2019-04-22T11:26:45.226Z,34.81
2019-04-22T11:27:45.158Z,33.65
2019-04-22T11:28:45.524Z,33.07
2019-04-22T11:29:45.725Z,34.62
2019-04-22T11:30:45.557Z,34.71
2019-04-22T11:31:46.454Z,35.02
2019-04-22T11:32:46.565Z,34.73
2019-04-22T11:33:46.017Z,33.28
2019-04-22T11:34:47.044Z,33.09
2019-04-22T11:35:46.291Z,34.92
2019-04-22T11:36:47.218Z,34.94
2019-04-22T11:37:46.758Z,34.83
2019-04-22T11:38:54.046Z,34.17
2019-04-22T11:39:54.494Z,33.49
2019-04-22T11:40:50.463Z,33.01
2019-04-22T11:41:47.144Z,33.29
2019-04-22T11:42:48.210Z,33.10
2019-04-22T11:43:47.474Z,33.59
2019-04-22T11:44:47.629Z,33.10
2019-04-22T11:45:49.124Z,33.10
2019-04-22T11:46:47.875Z,33.69
2019-04-22T11:47:48.021Z,34.36
2019-04-22T11:48:48.156Z,34.55
2019-04-22T11:49:48.316Z,34.36
2019-04-22T11:50:48.451Z,33.51
2019-04-22T11:51:49.782Z,32.42
2019-04-22T11:52:48.949Z,32.52
2019-04-22T11:53:49.169Z,33.01
2019-04-22T11:54:49.023Z,32.64
2019-04-22T11:55:49.169Z,32.73
2019-04-22T11:56:49.568Z,31.57
2019-04-22T11:57:49.865Z,31.96
2019-04-22T11:58:50.809Z,32.54
2019-04-22T11:59:51.071Z,32.82
2019-04-22T12:00:51.474Z,33.41
2019-04-22T12:01:51.031Z,32.54
2019-04-22T12:02:51.169Z,33.22
2019-04-22T12:03:51.649Z,32.44
2019-04-22T12:04:51.822Z,31.47
2019-04-22T12:05:52.078Z,32.33
2019-04-22T12:06:51.739Z,32.54
2019-04-22T12:07:51.015Z,32.54
2019-04-22T12:08:51.917Z,31.46
2019-04-22T12:09:51.411Z,31.56
2019-04-22T12:10:55.396Z,30.68
2019-04-22T12:11:51.752Z,30.29
2019-04-22T12:12:53.424Z,29.43
2019-04-22T12:13:51.943Z,30.51
2019-04-22T12:14:52.330Z,31.57
2019-04-22T12:15:53.351Z,31.96
2019-04-22T12:16:53.182Z,31.96
2019-04-22T12:17:53.097Z,31.67
2019-04-22T12:18:53.488Z,32.64
2019-04-22T12:19:52.744Z,32.64
2019-04-22T12:20:53.175Z,33.22
2019-04-22T12:21:53.261Z,32.44
2019-04-22T12:22:53.433Z,32.06
2019-04-22T12:23:54.809Z,32.24
2019-04-22T12:24:54.388Z,31.09
2019-04-22T12:26:00.938Z,31.57
2019-04-22T12:26:53.809Z,30.69
2019-04-22T12:27:55.106Z,30.79
2019-04-22T12:28:55.057Z,32.24
2019-04-22T12:29:54.230Z,31.96
2019-04-22T12:30:55.327Z,31.76
2019-04-22T12:31:55.574Z,31.96
2019-04-22T12:32:54.771Z,30.79
2019-04-22T12:33:55.133Z,30.99
2019-04-22T12:34:55.563Z,30.99
2019-04-22T12:35:55.119Z,30.89
2019-04-22T12:36:56.320Z,31.20
2019-04-22T12:38:00.688Z,30.62
2019-04-22T12:38:55.730Z,31.78
2019-04-22T12:39:56.560Z,32.26
2019-04-22T12:41:00.672Z,28.97
2019-04-22T12:41:56.247Z,29.64
2019-04-22T12:42:57.532Z,29.36
2019-04-22T12:43:56.249Z,30.42
2019-04-22T12:44:56.382Z,29.64
2019-04-22T12:45:56.520Z,29.74
2019-04-22T12:46:56.652Z,30.32
2019-04-22T12:47:57.919Z,31.68
2019-04-22T12:48:58.225Z,30.62
2019-04-22T12:50:10.341Z,30.71
2019-04-22T12:50:58.496Z,31.29
2019-04-22T12:51:58.844Z,32.17
2019-04-22T12:53:03.031Z,32.07
2019-04-22T12:53:58.990Z,32.46
2019-04-22T12:54:57.775Z,32.65
2019-04-22T12:55:59.322Z,30.81
2019-04-22T12:56:59.601Z,31.10
2019-04-22T12:58:00.755Z,30.79
2019-04-22T12:58:59.372Z,30.31
2019-04-22T12:59:59.593Z,30.79
2019-04-22T13:00:58.951Z,30.51
2019-04-22T13:01:58.752Z,29.92
2019-04-22T13:02:58.965Z,30.31
2019-04-22T13:04:05.730Z,30.99
2019-04-22T13:05:00.346Z,30.51
2019-04-22T13:05:59.418Z,31.37
2019-04-22T13:06:59.749Z,30.51
2019-04-22T13:08:00.092Z,29.73
2019-04-22T13:09:00.271Z,30.11
2019-04-22T13:10:01.262Z,30.69
2019-04-22T13:11:06.855Z,29.83
2019-04-22T13:12:01.250Z,29.92
2019-04-22T13:13:00.873Z,30.31
2019-04-22T13:14:00.939Z,31.18
2019-04-22T13:15:01.516Z,30.99
2019-04-22T13:16:00.751Z,32.15
2019-04-22T13:17:02.040Z,32.34
2019-04-22T13:18:10.324Z,31.47
2019-04-22T13:19:05.645Z,30.68
2019-04-22T13:20:02.501Z,30.51
2019-04-22T13:21:02.310Z,32.64
2019-04-22T13:22:02.815Z,32.54
2019-04-22T13:23:02.197Z,32.06
2019-04-22T13:24:02.701Z,31.09
2019-04-22T13:25:02.134Z,31.18
2019-04-22T13:26:03.058Z,30.69
2019-04-22T13:27:03.320Z,30.69
2019-04-22T13:28:03.025Z,30.58
2019-04-22T13:29:03.246Z,30.39
2019-04-22T13:30:04.570Z,31.67
2019-04-22T13:31:03.778Z,31.67
2019-04-22T13:32:03.041Z,32.06
2019-04-22T13:33:03.179Z,31.96
2019-04-22T13:34:04.065Z,31.28
2019-04-22T13:35:04.989Z,30.20
2019-04-22T13:36:03.806Z,30.29
2019-04-22T13:37:05.026Z,30.39
2019-04-22T13:38:04.809Z,30.29
2019-04-22T13:39:04.841Z,30.10
2019-04-22T13:40:05.387Z,30.20
2019-04-22T13:41:28.254Z,30.68
2019-04-22T13:42:07.504Z,30.58
2019-04-22T13:43:04.911Z,30.58
2019-04-22T13:44:05.002Z,31.74
2019-04-22T13:45:04.938Z,31.74
2019-04-22T13:46:06.042Z,31.26
2019-04-22T13:47:26.948Z,32.33
2019-04-22T13:48:21.994Z,31.56
2019-04-22T13:49:31.091Z,30.68
2019-04-22T13:51:40.991Z,31.83
2019-04-22T13:55:38.497Z,30.96
2019-04-22T13:56:24.831Z,31.65
2019-04-22T13:57:27.655Z,31.54
2019-04-22T13:58:18.507Z,31.63
2019-04-22T13:59:13.607Z,32.52
2019-04-22T14:00:09.546Z,31.63
2019-04-22T14:01:07.178Z,31.34
2019-04-22T14:02:08.485Z,31.63
2019-04-22T14:03:08.749Z,31.73
2019-04-22T14:04:07.518Z,31.54
2019-04-22T14:05:08.619Z,31.44
2019-04-22T14:06:09.069Z,30.55
2019-04-22T14:07:07.950Z,31.63
2019-04-22T14:08:08.790Z,31.63
2019-04-22T14:09:09.543Z,31.54
2019-04-22T14:10:08.679Z,31.54
2019-04-22T14:11:16.993Z,31.44
2019-04-22T14:12:11.463Z,32.99
2019-04-22T14:13:09.969Z,32.60
2019-04-22T14:14:09.254Z,32.21
2019-04-22T14:15:09.846Z,32.12
2019-04-22T14:16:09.168Z,32.02
2019-04-22T14:17:09.325Z,31.15
2019-04-22T14:18:10.661Z,31.05
2019-04-22T14:19:09.985Z,31.63
2019-04-22T14:20:10.933Z,30.57
2019-04-22T14:21:09.862Z,30.86
2019-04-22T14:22:10.006Z,31.25
2019-04-22T14:23:11.732Z,30.57
2019-04-22T14:24:12.501Z,30.28
2019-04-22T14:25:10.635Z,30.28
2019-04-22T14:26:11.251Z,30.96
2019-04-22T14:27:22.073Z,30.28
2019-04-22T14:28:16.903Z,31.25
2019-04-22T14:29:11.354Z,30.57
2019-04-22T14:30:12.267Z,29.32
2019-04-22T14:31:12.625Z,29.30
2019-04-22T14:32:18.755Z,29.69
2019-04-22T14:33:12.146Z,30.75
2019-04-22T14:34:13.357Z,30.75